createdAt,value
2022-10-05T00:00:25.425Z,11.14
2022-10-05T00:03:17.795Z,11.14
2022-10-05T00:05:50.770Z,11.14
2022-10-05T00:08:26.523Z,11.15
2022-10-05T00:10:58.876Z,11.16
2022-10-05T00:13:32.226Z,11.17
2022-10-05T00:16:14.684Z,11.17
2022-10-05T00:18:50.046Z,11.17
2022-10-05T00:21:24.610Z,11.18
2022-10-05T00:23:59.785Z,11.17
2022-10-05T00:26:35.454Z,11.17
2022-10-05T00:29:22.745Z,11.18
2022-10-05T00:31:55.176Z,11.17
2022-10-05T00:34:28.392Z,11.17
2022-10-05T00:37:01.243Z,11.18
2022-10-05T00:39:34.385Z,11.19
2022-10-05T00:42:20.890Z,11.21
2022-10-05T00:44:56.734Z,11.20
2022-10-05T00:47:42.497Z,11.21
2022-10-05T00:50:44.844Z,11.21
2022-10-05T00:53:31.665Z,11.21
2022-10-05T00:56:08.021Z,11.20
2022-10-05T00:58:55.385Z,11.18
2022-10-05T01:01:33.150Z,11.18
2022-10-05T01:04:16.802Z,11.18
2022-10-05T01:07:03.303Z,11.19
2022-10-05T01:09:43.775Z,11.19
2022-10-05T01:12:24.543Z,11.19
2022-10-05T01:15:06.586Z,11.19
2022-10-05T01:17:46.053Z,11.20
2022-10-05T01:20:35.631Z,11.22
2022-10-05T01:23:33.147Z,11.22
2022-10-05T01:26:25.926Z,11.23
2022-10-05T01:29:05.090Z,11.25
2022-10-05T01:31:44.104Z,11.26
2022-10-05T01:34:29.194Z,11.25
2022-10-05T01:37:08.412Z,11.25
2022-10-05T01:39:51.722Z,11.25
2022-10-05T01:42:32.505Z,11.25
2022-10-05T01:45:10.721Z,11.23
2022-10-05T01:47:48.969Z,11.22
2022-10-05T01:50:34.423Z,11.20
2022-10-05T01:53:21.280Z,11.17
2022-10-05T01:56:00.284Z,11.16
2022-10-05T01:58:42.805Z,11.17
2022-10-05T02:01:26.972Z,11.16
2022-10-05T02:04:10.525Z,11.15
2022-10-05T02:06:46.602Z,11.14
2022-10-05T02:09:24.204Z,11.13
2022-10-05T02:12:13.161Z,11.13
2022-10-05T02:14:48.715Z,11.14
2022-10-05T02:17:21.107Z,11.15
2022-10-05T02:20:00.000Z,11.14
2022-10-05T02:22:36.679Z,11.14
2022-10-05T02:25:14.589Z,11.13
2022-10-05T02:27:51.245Z,11.12
2022-10-05T02:30:24.276Z,11.10
2022-10-05T02:33:01.380Z,11.10
2022-10-05T02:35:33.882Z,11.11
2022-10-05T02:38:15.681Z,11.12
2022-10-05T02:40:59.928Z,11.12
2022-10-05T02:43:44.529Z,11.12
2022-10-05T02:46:29.175Z,11.12
2022-10-05T02:49:13.829Z,11.12
2022-10-05T02:51:57.558Z,11.09
2022-10-05T02:54:43.864Z,11.07
2022-10-05T02:57:26.157Z,11.07
2022-10-05T03:00:03.357Z,11.06
2022-10-05T03:02:42.721Z,11.06
2022-10-05T03:05:23.424Z,11.07
2022-10-05T03:08:02.267Z,11.05
2022-10-05T03:10:40.855Z,11.03
2022-10-05T03:13:27.311Z,11.02
2022-10-05T03:16:12.830Z,11.01
2022-10-05T03:18:57.441Z,11.00
2022-10-05T03:21:44.977Z,10.99
2022-10-05T03:24:43.577Z,11.00
2022-10-05T03:27:28.382Z,11.00
2022-10-05T03:30:14.757Z,11.00
2022-10-05T03:33:01.784Z,11.00
2022-10-05T03:35:38.267Z,11.00
2022-10-05T03:38:19.261Z,11.00
2022-10-05T03:40:59.048Z,11.01
2022-10-05T03:43:51.806Z,11.02
2022-10-05T03:46:33.809Z,11.03
2022-10-05T03:49:17.019Z,11.03
2022-10-05T03:51:55.081Z,11.03
2022-10-05T03:54:32.057Z,11.04
2022-10-05T03:57:12.479Z,11.04
2022-10-05T03:59:53.462Z,11.02
2022-10-05T04:02:30.635Z,11.00
2022-10-05T04:05:12.800Z,10.97
2022-10-05T04:07:47.651Z,10.95
2022-10-05T04:10:27.003Z,10.94
2022-10-05T04:13:04.690Z,10.93
2022-10-05T04:15:43.121Z,10.91
2022-10-05T04:18:27.285Z,10.89
2022-10-05T04:21:04.323Z,10.87
2022-10-05T04:23:46.034Z,10.83
2022-10-05T04:26:21.327Z,10.82
2022-10-05T04:29:00.411Z,10.81
2022-10-05T04:31:50.008Z,10.81
2022-10-05T04:34:42.090Z,10.81
2022-10-05T04:37:22.981Z,10.80
2022-10-05T04:40:09.943Z,10.81
2022-10-05T04:42:49.028Z,10.81
2022-10-05T04:45:35.360Z,10.79
2022-10-05T04:48:21.934Z,10.80
2022-10-05T04:51:07.470Z,10.79
2022-10-05T04:53:47.774Z,10.79
2022-10-05T04:56:29.643Z,10.79
2022-10-05T04:59:20.860Z,10.78
2022-10-05T05:02:08.776Z,10.78
2022-10-05T05:05:00.128Z,10.78
2022-10-05T05:07:49.193Z,10.78
2022-10-05T05:10:45.134Z,10.78
2022-10-05T05:13:39.841Z,10.77
2022-10-05T05:16:21.456Z,10.76
2022-10-05T05:19:33.094Z,10.74
2022-10-05T05:22:09.655Z,10.74
2022-10-05T05:24:58.886Z,10.75
2022-10-05T05:27:48.674Z,10.76
2022-10-05T05:30:25.983Z,10.77
2022-10-05T05:33:20.409Z,10.78
2022-10-05T05:36:26.425Z,10.78
2022-10-05T05:39:18.383Z,10.79
2022-10-05T05:42:01.857Z,10.79
2022-10-05T05:44:41.325Z,10.80
2022-10-05T05:47:21.063Z,10.81
2022-10-05T05:50:11.673Z,10.82
2022-10-05T05:52:48.612Z,10.82
2022-10-05T05:55:29.971Z,10.83
2022-10-05T05:58:11.508Z,10.84
2022-10-05T06:00:49.770Z,10.83
2022-10-05T06:03:27.385Z,10.85
2022-10-05T06:06:03.037Z,10.86
2022-10-05T06:08:39.396Z,10.87
2022-10-05T06:11:34.272Z,10.89
2022-10-05T06:14:14.355Z,10.92
2022-10-05T06:16:52.600Z,10.96
2022-10-05T06:19:27.678Z,10.99
2022-10-05T06:22:06.835Z,11.04
2022-10-05T06:24:45.564Z,11.07
2022-10-05T06:27:28.523Z,11.11
2022-10-05T06:30:13.456Z,11.15
2022-10-05T06:33:07.627Z,11.15
2022-10-05T06:35:53.782Z,11.14
2022-10-05T06:38:50.858Z,11.15
2022-10-05T06:41:35.279Z,11.20
2022-10-05T06:44:14.260Z,11.25
2022-10-05T06:46:59.593Z,11.33
2022-10-05T06:49:58.811Z,11.43
2022-10-05T06:52:55.232Z,11.49
2022-10-05T06:55:37.985Z,11.53
2022-10-05T06:58:27.972Z,11.58
2022-10-05T07:01:06.193Z,11.66
2022-10-05T07:03:48.454Z,11.74
2022-10-05T07:06:26.873Z,11.83
2022-10-05T07:09:15.263Z,11.91
2022-10-05T07:12:04.580Z,11.94
2022-10-05T07:14:57.584Z,11.99
2022-10-05T07:17:45.735Z,12.04
2022-10-05T07:20:27.893Z,12.09
2022-10-05T07:23:19.877Z,12.16
2022-10-05T07:26:01.483Z,12.21
2022-10-05T07:28:44.801Z,12.29
2022-10-05T07:31:29.421Z,12.36
2022-10-05T07:34:10.897Z,12.43
2022-10-05T07:37:08.648Z,12.50
2022-10-05T07:40:00.250Z,12.55
2022-10-05T07:42:51.717Z,12.62
2022-10-05T07:45:35.302Z,12.70
2022-10-05T07:48:15.048Z,12.75
2022-10-05T07:50:59.956Z,12.80
2022-10-05T07:53:38.125Z,12.85
2022-10-05T07:56:22.088Z,12.91
2022-10-05T07:59:01.835Z,12.99
2022-10-05T08:01:38.787Z,13.06
2022-10-05T08:04:16.922Z,13.12
2022-10-05T08:06:55.285Z,13.15
2022-10-05T08:09:37.840Z,13.18
2022-10-05T08:12:30.926Z,13.22
2022-10-05T08:15:10.969Z,13.25
2022-10-05T08:17:51.908Z,13.33
2022-10-05T08:20:36.695Z,13.42
2022-10-05T08:23:18.972Z,13.51
2022-10-05T08:26:04.006Z,13.67
2022-10-05T08:28:52.463Z,13.82
2022-10-05T08:31:33.122Z,13.94
2022-10-05T08:34:20.320Z,14.01
2022-10-05T08:36:59.470Z,14.03
2022-10-05T08:39:38.563Z,14.06
2022-10-05T08:42:52.609Z,14.10
2022-10-05T08:45:55.536Z,14.20
2022-10-05T08:48:53.549Z,14.30
2022-10-05T08:52:02.503Z,14.41
2022-10-05T08:55:05.765Z,14.59
2022-10-05T08:58:17.397Z,14.77
2022-10-05T09:01:08.926Z,14.92
2022-10-05T09:04:20.927Z,14.95
2022-10-05T09:07:18.481Z,15.01
2022-10-05T09:10:26.003Z,15.01
2022-10-05T09:13:29.928Z,14.99
2022-10-05T09:16:37.721Z,14.98
2022-10-05T09:19:33.017Z,14.96
2022-10-05T09:22:16.619Z,14.96
2022-10-05T09:25:04.804Z,14.98
2022-10-05T09:27:40.203Z,14.96
2022-10-05T09:30:23.437Z,14.93
2022-10-05T09:33:47.611Z,14.91
2022-10-05T09:36:56.345Z,14.91
2022-10-05T09:39:52.632Z,14.90
2022-10-05T09:42:54.201Z,14.89
2022-10-05T09:46:01.448Z,14.88
2022-10-05T09:49:07.669Z,14.89
2022-10-05T09:52:12.311Z,14.90
2022-10-05T09:55:24.119Z,14.96
2022-10-05T09:58:33.510Z,15.06
2022-10-05T10:01:33.050Z,15.15
2022-10-05T10:04:43.915Z,15.22
2022-10-05T10:08:05.817Z,15.29
2022-10-05T10:10:58.337Z,15.31
2022-10-05T10:14:02.359Z,15.37
2022-10-05T10:16:53.785Z,15.50
2022-10-05T10:19:50.120Z,15.67
2022-10-05T10:23:07.976Z,15.82
2022-10-05T10:26:14.303Z,16.00
2022-10-05T10:32:20.548Z,16.21
2022-10-05T10:35:19.559Z,16.27
2022-10-05T10:38:40.320Z,16.30
2022-10-05T10:41:53.694Z,16.31
2022-10-05T10:44:52.535Z,16.33
2022-10-05T10:47:51.768Z,16.32
2022-10-05T10:50:59.018Z,16.29
2022-10-05T10:54:06.249Z,16.31
2022-10-05T10:56:59.545Z,16.34
2022-10-05T11:00:02.790Z,16.35
2022-10-05T11:03:02.285Z,16.39
2022-10-05T11:05:59.615Z,16.40
2022-10-05T11:09:09.509Z,16.41
2022-10-05T11:12:17.916Z,16.40
2022-10-05T11:15:18.354Z,16.42
2022-10-05T11:18:11.628Z,16.45
2022-10-05T11:21:05.775Z,16.50
2022-10-05T11:24:17.014Z,16.55
2022-10-05T11:27:33.111Z,16.59
2022-10-05T11:30:26.910Z,16.67
2022-10-05T11:33:48.331Z,16.70
2022-10-05T11:37:07.253Z,16.70
2022-10-05T11:39:56.352Z,16.68
2022-10-05T11:43:12.827Z,16.68
2022-10-05T11:46:02.119Z,16.69
2022-10-05T11:48:53.505Z,16.68
2022-10-05T11:51:38.355Z,16.69
2022-10-05T11:54:58.496Z,16.69
2022-10-05T11:57:34.835Z,16.65
2022-10-05T12:00:16.512Z,16.62
2022-10-05T12:03:10.948Z,16.60
2022-10-05T12:06:02.208Z,16.59
2022-10-05T12:08:51.129Z,16.58
2022-10-05T12:11:49.001Z,16.57
2022-10-05T12:14:31.095Z,16.57
2022-10-05T12:17:14.860Z,16.53
2022-10-05T12:19:51.027Z,16.52
2022-10-05T12:22:29.190Z,16.51
2022-10-05T12:25:18.065Z,16.53
2022-10-05T12:27:53.742Z,16.55
2022-10-05T12:30:38.716Z,16.56
2022-10-05T12:33:16.563Z,16.57
2022-10-05T12:35:54.078Z,16.58
2022-10-05T12:38:48.475Z,16.60
2022-10-05T12:41:28.748Z,16.62
2022-10-05T12:44:13.058Z,16.66
2022-10-05T12:47:02.349Z,16.69
2022-10-05T12:49:51.482Z,16.71
2022-10-05T12:52:43.456Z,16.70
2022-10-05T12:55:26.655Z,16.68
2022-10-05T12:58:14.637Z,16.66
2022-10-05T13:00:57.473Z,16.67
2022-10-05T13:03:35.752Z,16.67
2022-10-05T13:06:16.529Z,16.65
2022-10-05T13:08:54.950Z,16.62
2022-10-05T13:11:34.979Z,16.58
2022-10-05T13:14:19.399Z,16.57
2022-10-05T13:16:56.868Z,16.54
2022-10-05T13:19:41.692Z,16.51
2022-10-05T13:22:33.712Z,16.48
2022-10-05T13:25:23.641Z,16.44
2022-10-05T13:28:10.902Z,16.42
2022-10-05T13:30:46.916Z,16.40
2022-10-05T13:33:27.201Z,16.38
2022-10-05T13:36:08.545Z,16.36
2022-10-05T13:38:53.068Z,16.35
2022-10-05T13:41:36.145Z,16.34
2022-10-05T13:44:20.122Z,16.33
2022-10-05T13:47:00.912Z,16.32
2022-10-05T13:49:42.454Z,16.30
2022-10-05T13:52:27.240Z,16.28
2022-10-05T13:55:08.114Z,16.24
2022-10-05T13:57:54.123Z,16.21
2022-10-05T14:00:28.184Z,16.19
2022-10-05T14:03:02.142Z,16.15
2022-10-05T14:05:34.760Z,16.13
2022-10-05T14:08:20.189Z,16.10
2022-10-05T14:10:53.977Z,16.09
2022-10-05T14:13:33.453Z,16.08
2022-10-05T14:16:20.213Z,16.07
2022-10-05T14:18:59.088Z,16.07
2022-10-05T14:21:33.550Z,16.07
2022-10-05T14:24:43.094Z,16.06
2022-10-05T14:27:26.800Z,16.05
2022-10-05T14:30:06.453Z,16.05
2022-10-05T14:33:10.347Z,16.04
2022-10-05T14:35:54.656Z,16.03
2022-10-05T14:38:29.970Z,16.02
2022-10-05T14:41:25.030Z,16.01
2022-10-05T14:44:17.684Z,16.01
2022-10-05T14:47:01.290Z,16.01
2022-10-05T14:49:37.508Z,16.01
2022-10-05T14:52:34.820Z,16.00
2022-10-05T14:55:21.278Z,15.97
2022-10-05T14:58:06.680Z,15.94
2022-10-05T15:00:50.346Z,15.93
2022-10-05T15:03:36.976Z,15.92
2022-10-05T15:06:17.162Z,15.92
2022-10-05T15:08:59.607Z,15.89
2022-10-05T15:11:43.351Z,15.87
2022-10-05T15:14:20.515Z,15.86
2022-10-05T15:16:58.875Z,15.83
2022-10-05T15:19:41.566Z,15.81
2022-10-05T15:22:26.620Z,15.81
2022-10-05T15:25:02.904Z,15.79
2022-10-05T15:27:51.496Z,15.75
2022-10-05T15:30:24.666Z,15.72
2022-10-05T15:33:10.652Z,15.68
2022-10-05T15:36:04.401Z,15.67
2022-10-05T15:38:45.430Z,15.67
2022-10-05T15:41:24.102Z,15.66
2022-10-05T15:44:09.086Z,15.65
2022-10-05T15:46:53.633Z,15.63
2022-10-05T15:49:38.146Z,15.62
2022-10-05T15:52:23.946Z,15.61
2022-10-05T15:55:35.255Z,15.56
2022-10-05T15:58:31.337Z,15.51
2022-10-05T16:01:08.619Z,15.48
2022-10-05T16:03:50.457Z,15.45
2022-10-05T16:06:57.414Z,15.41
2022-10-05T16:09:50.483Z,15.39
2022-10-05T16:12:31.305Z,15.36
2022-10-05T16:15:16.955Z,15.35
2022-10-05T16:18:18.557Z,15.34
2022-10-05T16:20:55.078Z,15.28
2022-10-05T16:23:39.214Z,15.26
2022-10-05T16:26:22.753Z,15.24
2022-10-05T16:29:03.984Z,15.24
2022-10-05T16:31:47.164Z,15.23
2022-10-05T16:34:30.916Z,15.22
2022-10-05T16:37:12.745Z,15.19
2022-10-05T16:39:53.148Z,15.15
2022-10-05T16:42:36.314Z,15.12
2022-10-05T16:45:22.978Z,15.12
2022-10-05T16:48:04.880Z,15.09
2022-10-05T16:50:48.905Z,15.07
2022-10-05T16:53:26.569Z,15.06
2022-10-05T16:56:03.230Z,15.03
2022-10-05T16:58:50.987Z,15.00
2022-10-05T17:01:42.349Z,14.97
2022-10-05T17:04:26.236Z,14.95
2022-10-05T17:07:32.678Z,14.92
2022-10-05T17:10:41.189Z,14.90
2022-10-05T17:13:37.507Z,14.87
2022-10-05T17:16:19.281Z,14.88
2022-10-05T17:19:19.341Z,14.89
2022-10-05T17:22:00.764Z,14.88
2022-10-05T17:24:55.106Z,14.85
2022-10-05T17:27:35.565Z,14.83
2022-10-05T17:30:53.986Z,14.80
2022-10-05T17:33:29.163Z,14.77
2022-10-05T17:36:21.577Z,14.77
2022-10-05T17:39:12.292Z,14.75
2022-10-05T17:41:45.368Z,14.74
2022-10-05T17:44:26.467Z,14.73
2022-10-05T17:47:04.619Z,14.73
2022-10-05T17:50:09.995Z,14.71
2022-10-05T17:53:02.263Z,14.68
2022-10-05T17:55:46.799Z,14.66
2022-10-05T17:59:02.382Z,14.63
2022-10-05T18:01:37.436Z,14.61
2022-10-05T18:04:33.764Z,14.60
2022-10-05T18:07:16.857Z,14.57
2022-10-05T18:10:29.110Z,14.54
2022-10-05T18:13:35.600Z,14.56
2022-10-05T18:16:11.120Z,14.56
2022-10-05T18:18:58.222Z,14.56
2022-10-05T18:21:39.106Z,14.57
2022-10-05T18:24:45.557Z,14.58
2022-10-05T18:27:42.850Z,14.58
2022-10-05T18:30:23.346Z,14.60
2022-10-05T18:33:27.289Z,14.63
2022-10-05T18:36:19.541Z,14.64
2022-10-05T18:39:01.318Z,14.64
2022-10-05T18:41:48.490Z,14.63
2022-10-05T18:44:35.732Z,14.63
2022-10-05T18:47:18.367Z,14.60
2022-10-05T18:50:26.358Z,14.58
2022-10-05T18:53:16.264Z,14.55
2022-10-05T18:55:59.023Z,14.52
2022-10-05T18:58:42.118Z,14.51
2022-10-05T19:01:36.613Z,14.50
2022-10-05T19:04:22.633Z,14.49
2022-10-05T19:07:05.965Z,14.47
2022-10-05T19:09:53.940Z,14.41
2022-10-05T19:12:41.545Z,14.34
2022-10-05T19:15:24.954Z,14.31
2022-10-05T19:18:15.481Z,14.25
2022-10-05T19:20:55.731Z,14.21
2022-10-05T19:23:46.756Z,14.19
2022-10-05T19:26:30.081Z,14.19
2022-10-05T19:29:14.027Z,14.19
2022-10-05T19:31:51.521Z,14.18
2022-10-05T19:34:41.161Z,14.16
2022-10-05T19:37:19.077Z,14.14
2022-10-05T19:39:57.813Z,14.11
2022-10-05T19:42:53.569Z,14.09
2022-10-05T19:45:27.576Z,14.04
2022-10-05T19:48:14.118Z,14.00
2022-10-05T19:50:56.283Z,13.97
2022-10-05T19:53:31.278Z,13.95
2022-10-05T19:56:20.495Z,13.92
2022-10-05T19:58:57.502Z,13.89
2022-10-05T20:01:35.517Z,13.87
2022-10-05T20:04:09.582Z,13.86
2022-10-05T20:06:42.310Z,13.83
2022-10-05T20:09:24.799Z,13.81
2022-10-05T20:11:57.730Z,13.78
2022-10-05T20:14:58.550Z,13.77
2022-10-05T20:17:49.525Z,13.76
2022-10-05T20:20:32.137Z,13.75
2022-10-05T20:23:21.926Z,13.72
2022-10-05T20:26:17.500Z,13.71
2022-10-05T20:28:48.307Z,13.69
2022-10-05T20:31:21.474Z,13.68
2022-10-05T20:33:53.760Z,13.65
2022-10-05T20:36:26.096Z,13.63
2022-10-05T20:39:00.830Z,13.61
2022-10-05T20:41:35.935Z,13.60
2022-10-05T20:44:08.458Z,13.59
2022-10-05T20:46:41.784Z,13.57
2022-10-05T20:49:14.497Z,13.55
2022-10-05T20:51:46.764Z,13.54
2022-10-05T20:54:19.137Z,13.53
2022-10-05T20:56:51.777Z,13.53
2022-10-05T20:59:24.970Z,13.52
2022-10-05T21:01:59.109Z,13.50
2022-10-05T21:04:40.049Z,13.49
2022-10-05T21:07:13.111Z,13.49
2022-10-05T21:09:46.709Z,13.49
2022-10-05T21:12:19.248Z,13.48
2022-10-05T21:14:52.828Z,13.48
2022-10-05T21:17:25.084Z,13.48
2022-10-05T21:19:57.652Z,13.48
2022-10-05T21:22:30.264Z,13.48
2022-10-05T21:25:02.582Z,13.48
2022-10-05T21:27:34.951Z,13.50
2022-10-05T21:30:08.666Z,13.51
2022-10-05T21:32:44.464Z,13.52
2022-10-05T21:35:17.313Z,13.53
2022-10-05T21:37:49.616Z,13.53
2022-10-05T21:40:21.900Z,13.52
2022-10-05T21:42:54.241Z,13.52
2022-10-05T21:45:26.726Z,13.52
2022-10-05T21:48:00.095Z,13.51
2022-10-05T21:50:33.615Z,13.50
2022-10-05T21:53:12.275Z,13.49
2022-10-05T21:55:48.508Z,13.47
2022-10-05T21:58:28.048Z,13.46
2022-10-05T22:01:00.648Z,13.45
2022-10-05T22:03:57.049Z,13.45
2022-10-05T22:06:29.401Z,13.42
2022-10-05T22:09:02.034Z,13.40
2022-10-05T22:11:34.785Z,13.38
2022-10-05T22:14:07.105Z,13.37
2022-10-05T22:16:40.639Z,13.37
2022-10-05T22:19:20.073Z,13.36
2022-10-05T22:21:52.583Z,13.34
2022-10-05T22:24:24.982Z,13.34
2022-10-05T22:26:57.331Z,13.32
2022-10-05T22:29:29.708Z,13.30
2022-10-05T22:32:02.110Z,13.27
2022-10-05T22:34:34.537Z,13.26
2022-10-05T22:37:07.634Z,13.23
2022-10-05T22:39:40.006Z,13.21
2022-10-05T22:42:12.403Z,13.19
2022-10-05T22:44:44.673Z,13.17
2022-10-05T22:47:17.248Z,13.16
2022-10-05T22:49:49.539Z,13.15
2022-10-05T22:52:21.839Z,13.13
2022-10-05T22:54:54.260Z,13.09
2022-10-05T22:57:26.624Z,13.08
2022-10-05T22:59:58.923Z,13.09
2022-10-05T23:02:31.301Z,13.09
2022-10-05T23:05:03.603Z,13.08
2022-10-05T23:07:40.004Z,13.07
2022-10-05T23:10:15.103Z,13.06
2022-10-05T23:12:59.694Z,13.04
2022-10-05T23:15:33.989Z,13.02
2022-10-05T23:18:06.344Z,13.01
2022-10-05T23:20:38.608Z,13.00
2022-10-05T23:23:10.860Z,13.01
2022-10-05T23:25:43.212Z,13.00
2022-10-05T23:28:15.527Z,12.98
2022-10-05T23:30:48.210Z,12.96
2022-10-05T23:33:20.562Z,12.95
2022-10-05T23:36:00.310Z,12.95
2022-10-05T23:38:32.792Z,12.94
2022-10-05T23:41:06.265Z,12.91
2022-10-05T23:43:39.334Z,12.89
2022-10-05T23:46:12.693Z,12.86
2022-10-05T23:48:44.954Z,12.85
2022-10-05T23:51:17.293Z,12.83
2022-10-05T23:53:49.652Z,12.83
2022-10-05T23:56:22.181Z,12.83
2022-10-05T23:58:54.504Z,12.82
